createdAt,value
2023-08-15T00:00:47.799Z,0.00
2023-08-15T00:01:47.746Z,0.00
2023-08-15T00:02:47.820Z,0.00
2023-08-15T00:03:47.813Z,0.00
2023-08-15T00:04:47.740Z,0.00
2023-08-15T00:05:47.740Z,0.00
2023-08-15T00:06:47.737Z,0.00
2023-08-15T00:07:47.737Z,0.00
2023-08-15T00:08:47.739Z,0.00
2023-08-15T00:09:47.739Z,0.00
2023-08-15T00:10:47.735Z,0.00
2023-08-15T00:11:47.735Z,0.00
2023-08-15T00:12:47.746Z,0.00
2023-08-15T00:13:47.812Z,0.00
2023-08-15T00:14:47.733Z,0.00
2023-08-15T00:15:47.734Z,0.00
2023-08-15T00:16:47.765Z,0.00
2023-08-15T00:17:47.774Z,0.00
2023-08-15T00:18:47.730Z,0.00
2023-08-15T00:19:47.730Z,0.00
2023-08-15T00:20:47.738Z,0.00
2023-08-15T00:21:47.731Z,0.00
2023-08-15T00:22:47.730Z,0.00
2023-08-15T00:23:47.732Z,0.00
2023-08-15T00:24:47.725Z,0.00
2023-08-15T00:25:47.731Z,0.00
2023-08-15T00:26:47.725Z,0.00
2023-08-15T00:27:47.725Z,0.00
2023-08-15T00:28:47.721Z,0.00
2023-08-15T00:29:47.721Z,0.00
2023-08-15T00:30:47.792Z,0.00
2023-08-15T00:31:47.721Z,0.00
2023-08-15T00:32:47.733Z,0.00
2023-08-15T00:33:47.716Z,0.00
2023-08-15T00:34:47.723Z,0.00
2023-08-15T00:35:47.719Z,0.00
2023-08-15T00:36:47.720Z,0.00
2023-08-15T00:37:47.714Z,0.00
2023-08-15T00:38:47.710Z,0.00
2023-08-15T00:39:47.710Z,0.00
2023-08-15T00:40:47.713Z,0.00
2023-08-15T00:41:47.708Z,0.00
2023-08-15T00:42:47.713Z,0.00
2023-08-15T00:43:47.706Z,0.00
2023-08-15T00:44:47.710Z,0.00
2023-08-15T00:45:47.707Z,0.00
2023-08-15T00:46:47.722Z,0.00
2023-08-15T00:47:47.764Z,0.00
2023-08-15T00:48:47.702Z,0.00
2023-08-15T00:49:47.699Z,0.00
2023-08-15T00:50:47.696Z,0.00
2023-08-15T00:51:48.698Z,0.00
2023-08-15T00:52:47.696Z,0.00
2023-08-15T00:53:47.696Z,0.00
2023-08-15T00:54:47.695Z,0.00
2023-08-15T00:55:47.688Z,0.00
2023-08-15T00:56:47.693Z,0.00
2023-08-15T00:57:47.689Z,0.00
2023-08-15T00:58:47.688Z,0.00
2023-08-15T00:59:47.741Z,0.00
2023-08-15T01:00:47.688Z,0.00
2023-08-15T01:01:47.721Z,0.00
2023-08-15T01:02:47.767Z,0.00
2023-08-15T01:03:47.818Z,0.00
2023-08-15T01:04:47.680Z,0.00
2023-08-15T01:05:47.682Z,0.00
2023-08-15T01:06:47.681Z,0.00
2023-08-15T01:07:47.683Z,0.00
2023-08-15T01:08:47.688Z,0.00
2023-08-15T01:09:47.676Z,0.00
2023-08-15T01:10:47.674Z,0.00
2023-08-15T01:11:47.672Z,0.00
2023-08-15T01:12:47.674Z,0.00
2023-08-15T01:13:47.680Z,0.00
2023-08-15T01:14:47.667Z,0.00
2023-08-15T01:15:47.802Z,0.00
2023-08-15T01:16:47.667Z,0.00
2023-08-15T01:17:47.719Z,0.00
2023-08-15T01:18:47.664Z,0.00
2023-08-15T01:19:47.662Z,0.00
2023-08-15T01:20:47.736Z,0.00
2023-08-15T01:21:47.658Z,0.00
2023-08-15T01:22:47.657Z,0.00
2023-08-15T01:23:47.662Z,0.00
2023-08-15T01:24:47.658Z,0.00
2023-08-15T01:25:47.655Z,0.00
2023-08-15T01:26:47.665Z,0.00
2023-08-15T01:27:47.653Z,0.00
2023-08-15T01:28:47.651Z,0.00
2023-08-15T01:29:47.650Z,0.00
2023-08-15T01:30:47.652Z,0.00
2023-08-15T01:31:47.711Z,0.00
2023-08-15T01:32:47.659Z,0.00
2023-08-15T01:33:47.645Z,0.00
2023-08-15T01:34:47.649Z,0.00
2023-08-15T01:35:47.645Z,0.00
2023-08-15T01:36:47.642Z,0.00
2023-08-15T01:37:47.642Z,0.00
2023-08-15T01:38:47.638Z,0.00
2023-08-15T01:39:47.635Z,0.00
2023-08-15T01:40:47.636Z,0.00
2023-08-15T01:41:47.637Z,0.00
2023-08-15T01:42:47.632Z,0.00
2023-08-15T01:43:47.635Z,0.00
2023-08-15T01:44:47.628Z,0.00
2023-08-15T01:45:47.635Z,0.00
2023-08-15T01:46:47.644Z,0.00
2023-08-15T01:47:47.669Z,0.00
2023-08-15T01:48:47.624Z,0.00
2023-08-15T01:49:47.620Z,0.00
2023-08-15T01:50:47.621Z,0.00
2023-08-15T01:51:47.642Z,0.00
2023-08-15T01:52:47.619Z,0.00
2023-08-15T01:53:47.620Z,0.00
2023-08-15T01:54:47.616Z,0.00
2023-08-15T01:55:47.614Z,0.00
2023-08-15T01:56:47.630Z,0.00
2023-08-15T01:57:47.620Z,0.00
2023-08-15T01:58:47.615Z,0.00
2023-08-15T01:59:47.617Z,0.00
2023-08-15T02:00:47.614Z,0.00
2023-08-15T02:01:47.709Z,0.00
2023-08-15T02:02:47.647Z,0.00
2023-08-15T02:03:47.602Z,0.00
2023-08-15T02:04:47.602Z,0.00
2023-08-15T02:05:47.628Z,0.00
2023-08-15T02:06:47.600Z,0.00
2023-08-15T02:07:47.602Z,0.00
2023-08-15T02:08:47.595Z,0.00
2023-08-15T02:09:47.596Z,0.00
2023-08-15T02:10:47.633Z,0.00
2023-08-15T02:11:47.592Z,0.00
2023-08-15T02:12:47.593Z,0.00
2023-08-15T02:13:47.593Z,0.00
2023-08-15T02:14:47.589Z,0.00
2023-08-15T02:15:47.653Z,0.00
2023-08-15T02:16:47.594Z,0.00
2023-08-15T02:17:47.628Z,0.00
2023-08-15T02:18:47.595Z,0.00
2023-08-15T02:19:47.592Z,0.00
2023-08-15T02:20:47.588Z,0.00
2023-08-15T02:21:47.582Z,0.00
2023-08-15T02:22:47.595Z,0.00
2023-08-15T02:23:47.581Z,0.00
2023-08-15T02:24:47.609Z,0.00
2023-08-15T02:25:47.576Z,0.00
2023-08-15T02:26:47.571Z,0.00
2023-08-15T02:27:47.572Z,0.00
2023-08-15T02:28:47.578Z,0.00
2023-08-15T02:29:47.569Z,0.00
2023-08-15T02:30:47.568Z,0.00
2023-08-15T02:31:47.566Z,0.00
2023-08-15T02:32:47.646Z,0.00
2023-08-15T02:33:47.575Z,0.00
2023-08-15T02:34:47.565Z,0.00
2023-08-15T02:35:47.569Z,0.00
2023-08-15T02:36:47.563Z,0.00
2023-08-15T02:37:47.560Z,0.00
2023-08-15T02:38:47.559Z,0.00
2023-08-15T02:39:47.576Z,0.00
2023-08-15T02:40:47.557Z,0.00
2023-08-15T02:41:47.556Z,0.00
2023-08-15T02:42:47.558Z,0.00
2023-08-15T02:43:47.568Z,0.00
2023-08-15T02:44:47.572Z,0.00
2023-08-15T02:45:47.558Z,0.00
2023-08-15T02:46:47.575Z,0.00
2023-08-15T02:47:47.578Z,0.00
2023-08-15T02:48:47.544Z,0.00
2023-08-15T02:49:47.545Z,0.00
2023-08-15T02:50:47.545Z,0.00
2023-08-15T02:51:47.543Z,0.00
2023-08-15T02:52:47.547Z,0.00
2023-08-15T02:53:47.546Z,0.00
2023-08-15T02:54:47.539Z,0.00
2023-08-15T02:55:47.536Z,0.00
2023-08-15T02:56:47.537Z,0.00
2023-08-15T02:57:47.534Z,0.00
2023-08-15T02:58:47.531Z,0.00
2023-08-15T02:59:47.531Z,0.00
2023-08-15T03:00:47.556Z,0.00
2023-08-15T03:01:47.564Z,0.00
2023-08-15T03:02:47.566Z,0.00
2023-08-15T03:03:47.524Z,0.00
2023-08-15T03:04:47.524Z,0.00
2023-08-15T03:05:47.523Z,0.00
2023-08-15T03:06:47.523Z,0.00
2023-08-15T03:07:47.521Z,0.00
2023-08-15T03:08:47.519Z,0.00
2023-08-15T03:09:47.520Z,0.00
2023-08-15T03:10:47.513Z,0.00
2023-08-15T03:11:47.518Z,0.00
2023-08-15T03:12:47.520Z,0.00
2023-08-15T03:13:47.511Z,0.00
2023-08-15T03:14:47.516Z,4.00
2023-08-15T03:15:47.515Z,4.00
2023-08-15T03:16:47.590Z,4.00
2023-08-15T03:17:47.555Z,4.00
2023-08-15T03:18:47.507Z,0.00
2023-08-15T03:19:47.499Z,4.00
2023-08-15T03:20:47.500Z,4.00
2023-08-15T03:21:47.509Z,8.00
2023-08-15T03:22:47.497Z,4.00
2023-08-15T03:23:47.494Z,8.00
2023-08-15T03:24:47.504Z,4.00
2023-08-15T03:25:47.497Z,8.00
2023-08-15T03:26:47.503Z,8.00
2023-08-15T03:27:47.489Z,12.00
2023-08-15T03:28:47.489Z,12.00
2023-08-15T03:29:47.488Z,16.00
2023-08-15T03:30:47.530Z,16.00
2023-08-15T03:31:47.542Z,20.00
2023-08-15T03:32:47.544Z,24.00
2023-08-15T03:33:47.481Z,24.00
2023-08-15T03:34:47.478Z,28.00
2023-08-15T03:35:47.480Z,32.00
2023-08-15T03:36:47.477Z,40.00
2023-08-15T03:37:47.477Z,40.00
2023-08-15T03:38:47.475Z,44.00
2023-08-15T03:39:47.474Z,48.00
2023-08-15T03:40:47.469Z,52.00
2023-08-15T03:41:47.470Z,60.00
2023-08-15T03:42:47.472Z,64.00
2023-08-15T03:43:47.466Z,72.00
2023-08-15T03:44:47.461Z,80.00
2023-08-15T03:45:47.485Z,84.00
2023-08-15T03:46:47.477Z,92.00
2023-08-15T03:47:47.475Z,100.00
2023-08-15T03:48:47.533Z,108.00
2023-08-15T03:49:47.455Z,116.00
2023-08-15T03:50:47.462Z,124.00
2023-08-15T03:51:47.913Z,132.00
2023-08-15T03:52:47.461Z,140.00
2023-08-15T03:53:47.447Z,148.00
2023-08-15T03:54:47.446Z,160.00
2023-08-15T03:55:47.443Z,172.00
2023-08-15T03:56:47.449Z,180.00
2023-08-15T03:57:47.440Z,192.00
2023-08-15T03:58:47.434Z,200.00
2023-08-15T03:59:47.435Z,212.00
2023-08-15T04:00:47.439Z,220.00
2023-08-15T04:01:47.437Z,236.00
2023-08-15T04:02:47.493Z,248.00
2023-08-15T04:03:47.474Z,260.00
2023-08-15T04:04:47.423Z,272.00
2023-08-15T04:05:47.432Z,284.00
2023-08-15T04:06:47.419Z,296.00
2023-08-15T04:07:47.432Z,312.00
2023-08-15T04:08:47.414Z,328.00
2023-08-15T04:09:47.413Z,344.00
2023-08-15T04:10:47.427Z,360.00
2023-08-15T04:11:47.410Z,380.00
2023-08-15T04:12:47.407Z,400.00
2023-08-15T04:13:47.406Z,424.00
2023-08-15T04:14:47.410Z,448.00
2023-08-15T04:15:47.407Z,476.00
2023-08-15T04:16:48.984Z,504.00
2023-08-15T04:17:47.426Z,540.00
2023-08-15T04:18:47.394Z,580.00
2023-08-15T04:19:47.392Z,620.00
2023-08-15T04:20:47.389Z,664.00
2023-08-15T04:21:47.385Z,712.00
2023-08-15T04:22:47.384Z,760.00
2023-08-15T04:23:47.381Z,812.00
2023-08-15T04:24:47.390Z,872.00
2023-08-15T04:25:47.379Z,964.00
2023-08-15T04:26:47.378Z,1060.00
2023-08-15T04:27:47.375Z,1116.00
2023-08-15T04:28:47.374Z,1180.00
2023-08-15T04:29:47.376Z,1236.00
2023-08-15T04:30:47.375Z,1288.00
2023-08-15T04:31:47.418Z,1312.00
2023-08-15T04:32:47.383Z,1320.00
2023-08-15T04:33:47.374Z,1416.00
2023-08-15T04:34:49.913Z,1496.00
2023-08-15T04:35:47.374Z,1548.00
2023-08-15T04:36:47.389Z,1568.00
2023-08-15T04:37:47.363Z,1644.00
2023-08-15T04:38:47.352Z,1724.00
2023-08-15T04:39:47.353Z,1792.00
2023-08-15T04:40:47.390Z,1864.00
2023-08-15T04:41:47.352Z,2236.00
2023-08-15T04:42:47.351Z,2376.00
2023-08-15T04:43:47.343Z,2604.00
2023-08-15T04:44:47.367Z,2228.00
2023-08-15T04:45:47.368Z,1948.00
2023-08-15T04:46:47.340Z,2404.00
2023-08-15T04:47:47.380Z,2360.00
2023-08-15T04:48:47.341Z,2308.00
2023-08-15T04:49:49.979Z,1932.00
2023-08-15T04:50:47.338Z,1812.00
2023-08-15T04:51:47.333Z,1944.00
2023-08-15T04:52:47.333Z,2816.00
2023-08-15T04:53:47.333Z,2900.00
2023-08-15T04:54:47.326Z,2640.00
2023-08-15T04:55:47.330Z,3280.00
2023-08-15T04:56:47.337Z,3548.00
2023-08-15T04:57:47.329Z,3684.00
2023-08-15T04:58:47.327Z,3632.00
2023-08-15T04:59:47.323Z,3552.00
2023-08-15T05:00:47.318Z,3576.00
2023-08-15T05:01:47.342Z,3740.00
2023-08-15T05:02:47.364Z,3840.00
2023-08-15T05:03:47.317Z,3940.00
2023-08-15T05:04:47.318Z,4316.00
2023-08-15T05:05:47.315Z,4248.00
2023-08-15T05:06:47.313Z,4380.00
2023-08-15T05:07:47.314Z,4416.00
2023-08-15T05:08:47.313Z,4420.00
2023-08-15T05:09:47.315Z,4472.00
2023-08-15T05:10:47.311Z,4420.00
2023-08-15T05:11:47.325Z,4528.00
2023-08-15T05:12:47.321Z,4632.00
2023-08-15T05:13:47.316Z,4568.00
2023-08-15T05:14:47.309Z,4692.00
2023-08-15T05:15:47.367Z,4684.00
2023-08-15T05:16:47.310Z,4696.00
2023-08-15T05:17:47.324Z,4648.00
2023-08-15T05:18:47.312Z,4260.00
2023-08-15T05:19:47.311Z,4124.00
2023-08-15T05:20:47.310Z,4340.00
2023-08-15T05:21:47.364Z,4664.00
2023-08-15T05:22:47.311Z,4976.00
2023-08-15T05:23:47.310Z,4968.00
2023-08-15T05:24:47.316Z,5016.00
2023-08-15T05:25:47.311Z,5052.00
2023-08-15T05:26:47.310Z,5088.00
2023-08-15T05:27:47.318Z,5132.00
2023-08-15T05:28:47.359Z,5176.00
2023-08-15T05:29:47.312Z,5064.00
2023-08-15T05:30:47.320Z,4880.00
2023-08-15T05:31:47.350Z,4868.00
2023-08-15T05:32:47.347Z,5028.00
2023-08-15T05:33:47.317Z,5268.00
2023-08-15T05:34:47.316Z,5472.00
2023-08-15T05:35:47.318Z,5524.00
2023-08-15T05:36:47.323Z,5608.00
2023-08-15T05:37:47.321Z,5640.00
2023-08-15T05:38:47.324Z,5708.00
2023-08-15T05:39:47.320Z,5924.00
2023-08-15T05:40:47.350Z,6144.00
2023-08-15T05:41:47.331Z,6496.00
2023-08-15T05:42:47.326Z,6996.00
2023-08-15T05:43:47.327Z,7688.00
2023-08-15T05:44:47.439Z,8688.00
2023-08-15T05:45:47.327Z,10424.00
2023-08-15T05:46:47.341Z,12004.00
2023-08-15T05:47:47.369Z,13688.00
2023-08-15T05:48:47.329Z,14720.00
2023-08-15T05:49:47.336Z,15456.00
2023-08-15T05:50:47.338Z,15936.00
2023-08-15T05:51:47.337Z,16256.00
2023-08-15T05:52:47.340Z,16416.00
2023-08-15T05:53:47.344Z,17504.00
2023-08-15T05:54:47.343Z,17984.00
2023-08-15T05:55:47.345Z,17696.00
2023-08-15T05:56:47.358Z,18400.00
2023-08-15T05:57:47.350Z,18848.00
2023-08-15T05:58:47.352Z,19904.00
2023-08-15T05:59:47.370Z,19328.00
2023-08-15T06:00:47.395Z,18464.00
2023-08-15T06:01:47.367Z,19552.00
2023-08-15T06:02:47.393Z,21440.00
2023-08-15T06:03:52.664Z,21248.00
2023-08-15T06:04:47.363Z,21184.00
2023-08-15T06:05:47.368Z,22496.00
2023-08-15T06:06:47.372Z,22656.00
2023-08-15T06:07:47.375Z,23072.00
2023-08-15T06:08:49.189Z,24864.00
2023-08-15T06:09:47.386Z,24992.00
2023-08-15T06:10:47.385Z,25984.00
2023-08-15T06:11:47.391Z,26112.00
2023-08-15T06:12:47.411Z,27456.00
2023-08-15T06:13:47.399Z,25632.00
2023-08-15T06:14:47.395Z,25632.00
2023-08-15T06:15:47.397Z,26368.00
2023-08-15T06:16:47.429Z,27296.00
2023-08-15T06:17:47.414Z,26976.00
2023-08-15T06:18:47.406Z,26144.00
2023-08-15T06:19:47.411Z,26912.00
2023-08-15T06:20:47.413Z,29248.00
2023-08-15T06:21:47.428Z,29920.00
2023-08-15T06:22:47.421Z,30816.00
2023-08-15T06:23:47.425Z,30016.00
2023-08-15T06:24:47.427Z,29440.00
2023-08-15T06:25:47.434Z,27904.00
2023-08-15T06:26:47.435Z,26944.00
2023-08-15T06:27:47.439Z,26656.00
2023-08-15T06:28:47.445Z,26464.00
2023-08-15T06:29:47.451Z,26848.00
2023-08-15T06:30:47.472Z,30112.00
2023-08-15T06:31:47.457Z,33344.00
2023-08-15T06:32:47.490Z,32000.00
2023-08-15T06:33:47.463Z,31488.00
2023-08-15T06:34:47.470Z,33952.00
2023-08-15T06:35:47.472Z,35968.00
2023-08-15T06:36:47.481Z,34944.00
2023-08-15T06:37:47.480Z,34464.00
2023-08-15T06:38:47.484Z,34592.00
2023-08-15T06:39:47.494Z,37088.00
2023-08-15T06:40:47.493Z,40992.00
2023-08-15T06:41:47.504Z,38592.00
2023-08-15T06:42:47.501Z,34240.00
2023-08-15T06:43:47.505Z,37024.00
2023-08-15T06:44:47.528Z,34112.00
2023-08-15T06:45:47.512Z,32192.00
2023-08-15T06:46:47.607Z,36384.00
2023-08-15T06:47:47.564Z,36096.00
2023-08-15T06:48:47.538Z,35744.00
2023-08-15T06:49:47.536Z,37504.00
2023-08-15T06:50:47.740Z,34208.00
2023-08-15T06:51:47.548Z,32896.00
2023-08-15T06:52:47.548Z,31904.00
2023-08-15T06:53:47.574Z,34112.00
2023-08-15T06:54:47.558Z,37408.00
2023-08-15T06:55:47.563Z,35296.00
2023-08-15T06:56:47.575Z,36544.00
2023-08-15T06:57:47.576Z,36704.00
2023-08-15T06:58:47.587Z,32128.00
2023-08-15T06:59:47.648Z,27936.00
2023-08-15T07:00:47.633Z,30464.00
2023-08-15T07:01:49.110Z,35936.00
2023-08-15T07:02:47.722Z,35808.00
2023-08-15T07:03:47.634Z,33824.00
2023-08-15T07:04:47.608Z,33312.00
2023-08-15T07:05:47.615Z,30912.00
2023-08-15T07:06:47.619Z,27360.00
2023-08-15T07:07:47.631Z,29248.00
2023-08-15T07:08:47.642Z,32224.00
2023-08-15T07:09:47.638Z,32096.00
2023-08-15T07:10:47.651Z,31168.00
2023-08-15T07:11:47.649Z,29248.00
2023-08-15T07:12:47.879Z,27520.00
2023-08-15T07:13:47.662Z,27744.00
2023-08-15T07:14:47.671Z,28352.00
2023-08-15T07:15:47.672Z,28320.00
2023-08-15T07:16:47.731Z,29024.00
2023-08-15T07:17:47.694Z,29472.00
2023-08-15T07:18:47.691Z,28832.00
2023-08-15T07:19:47.697Z,28320.00
2023-08-15T07:20:47.714Z,28512.00
2023-08-15T07:21:47.717Z,29088.00
2023-08-15T07:22:47.717Z,29696.00
2023-08-15T07:23:47.745Z,29856.00
2023-08-15T07:24:47.723Z,29696.00
2023-08-15T07:25:47.731Z,30048.00
2023-08-15T07:26:47.736Z,29632.00
2023-08-15T07:27:47.751Z,29600.00
2023-08-15T07:28:47.749Z,31264.00
2023-08-15T07:29:47.753Z,31360.00
2023-08-15T07:30:47.758Z,30336.00
2023-08-15T07:31:48.211Z,31488.00
2023-08-15T07:32:47.834Z,34336.00
2023-08-15T07:33:47.780Z,36256.00
2023-08-15T07:34:47.783Z,36256.00
2023-08-15T07:35:47.804Z,33696.00
2023-08-15T07:36:47.815Z,32992.00
2023-08-15T07:37:47.806Z,36960.00
2023-08-15T07:38:47.811Z,38304.00
2023-08-15T07:39:47.819Z,35488.00
2023-08-15T07:40:47.828Z,35424.00
2023-08-15T07:41:47.844Z,36192.00
2023-08-15T07:42:47.836Z,36288.00
2023-08-15T07:43:47.844Z,36512.00
2023-08-15T07:44:47.850Z,34080.00
2023-08-15T07:45:47.898Z,33280.00
2023-08-15T07:46:48.101Z,36672.00
2023-08-15T07:47:47.913Z,38752.00
2023-08-15T07:48:47.896Z,37312.00
2023-08-15T07:49:48.492Z,37984.00
2023-08-15T07:50:47.895Z,39104.00
2023-08-15T07:51:47.944Z,36448.00
2023-08-15T07:52:47.907Z,35072.00
2023-08-15T07:53:47.916Z,36992.00
2023-08-15T07:54:47.925Z,39840.00
2023-08-15T07:55:47.931Z,37408.00
2023-08-15T07:56:47.940Z,35680.00
2023-08-15T07:57:47.942Z,40544.00
2023-08-15T07:58:47.950Z,43616.00
2023-08-15T07:59:47.959Z,41472.00
2023-08-15T08:00:47.958Z,38176.00
2023-08-15T08:01:48.083Z,26560.00
2023-08-15T08:02:48.021Z,14044.00
2023-08-15T08:03:47.999Z,15832.00
2023-08-15T08:04:47.994Z,11024.00
2023-08-15T08:05:48.153Z,5524.00
2023-08-15T08:06:48.025Z,5548.00
2023-08-15T08:07:48.036Z,7068.00
2023-08-15T08:08:48.031Z,5880.00
2023-08-15T08:09:48.061Z,5316.00
2023-08-15T08:10:48.079Z,5592.00
2023-08-15T08:11:48.045Z,5212.00
2023-08-15T08:12:48.091Z,5064.00
2023-08-15T08:13:48.091Z,5196.00
2023-08-15T08:14:56.854Z,7856.00
2023-08-15T08:15:48.123Z,21216.00
2023-08-15T08:16:48.093Z,9072.00
2023-08-15T08:17:48.134Z,7064.00
2023-08-15T08:18:48.090Z,7200.00
2023-08-15T08:19:48.097Z,5700.00
2023-08-15T08:20:48.102Z,5012.00
2023-08-15T08:21:48.178Z,4892.00
2023-08-15T08:22:48.112Z,4872.00
2023-08-15T08:23:48.136Z,4880.00
2023-08-15T08:24:48.119Z,4888.00
2023-08-15T08:25:48.124Z,4880.00
2023-08-15T08:26:48.130Z,4892.00
2023-08-15T08:27:48.178Z,4904.00
2023-08-15T08:28:48.149Z,4884.00
2023-08-15T08:29:48.144Z,4836.00
2023-08-15T08:30:48.161Z,4764.00
2023-08-15T08:31:48.215Z,4728.00
2023-08-15T08:32:48.216Z,4688.00
2023-08-15T08:33:48.195Z,4640.00
2023-08-15T08:34:48.164Z,4608.00
2023-08-15T08:35:48.173Z,4580.00
2023-08-15T08:36:48.191Z,4568.00
2023-08-15T08:37:48.353Z,4616.00
2023-08-15T08:38:48.196Z,4660.00
2023-08-15T08:39:48.187Z,4684.00
2023-08-15T08:40:48.195Z,4724.00
2023-08-15T08:41:48.201Z,4772.00
2023-08-15T08:42:48.241Z,4804.00
2023-08-15T08:43:48.205Z,4868.00
2023-08-15T08:44:48.218Z,5004.00
2023-08-15T08:45:48.239Z,5072.00
2023-08-15T08:46:48.226Z,5168.00
2023-08-15T08:47:48.259Z,5156.00
2023-08-15T08:48:48.245Z,5120.00
2023-08-15T08:49:48.227Z,5084.00
2023-08-15T08:50:48.255Z,4988.00
2023-08-15T08:51:48.242Z,4988.00
2023-08-15T08:52:48.243Z,5024.00
2023-08-15T08:53:48.264Z,5180.00
2023-08-15T08:54:57.053Z,5492.00
2023-08-15T08:55:48.270Z,5568.00
2023-08-15T08:56:48.259Z,5744.00
2023-08-15T08:57:48.263Z,5844.00
2023-08-15T08:58:48.260Z,6068.00
2023-08-15T08:59:48.268Z,6036.00
2023-08-15T09:00:48.272Z,6272.00
2023-08-15T09:01:48.301Z,7036.00
2023-08-15T09:02:48.409Z,6532.00
2023-08-15T09:03:48.345Z,7084.00
2023-08-15T09:04:48.282Z,6332.00
2023-08-15T09:05:48.287Z,5552.00
2023-08-15T09:06:48.296Z,5336.00
2023-08-15T09:07:48.290Z,5392.00
2023-08-15T09:08:48.297Z,5464.00
2023-08-15T09:09:48.300Z,5456.00
2023-08-15T09:10:48.308Z,5560.00
2023-08-15T09:11:48.333Z,5800.00
2023-08-15T09:12:48.358Z,5696.00
2023-08-15T09:13:48.314Z,5820.00
2023-08-15T09:14:48.315Z,6800.00
2023-08-15T09:15:48.363Z,8124.00
2023-08-15T09:16:48.323Z,7116.00
2023-08-15T09:17:48.375Z,6516.00
2023-08-15T09:18:48.339Z,5820.00
2023-08-15T09:19:48.332Z,5968.00
2023-08-15T09:20:48.344Z,6200.00
2023-08-15T09:21:48.340Z,6352.00
2023-08-15T09:22:48.390Z,6496.00
2023-08-15T09:23:48.346Z,6828.00
2023-08-15T09:24:48.350Z,8108.00
2023-08-15T09:25:48.356Z,9524.00
2023-08-15T09:26:48.354Z,10616.00
2023-08-15T09:27:48.374Z,10312.00
2023-08-15T09:28:48.361Z,10112.00
2023-08-15T09:29:48.367Z,10288.00
2023-08-15T09:30:48.372Z,10416.00
2023-08-15T09:31:48.373Z,10348.00
2023-08-15T09:32:48.413Z,10628.00
2023-08-15T09:33:48.384Z,10656.00
2023-08-15T09:34:48.384Z,10988.00
2023-08-15T09:35:58.005Z,11200.00
2023-08-15T09:36:48.391Z,11952.00
2023-08-15T09:37:48.451Z,12228.00
2023-08-15T09:38:48.400Z,11920.00
2023-08-15T09:39:48.403Z,12376.00
2023-08-15T09:40:48.462Z,11700.00
2023-08-15T09:41:48.409Z,11804.00
2023-08-15T09:42:48.403Z,12756.00
2023-08-15T09:43:48.420Z,13112.00
2023-08-15T09:44:48.418Z,12392.00
2023-08-15T09:45:48.420Z,12280.00
2023-08-15T09:46:49.356Z,10488.00
2023-08-15T09:47:48.503Z,9168.00
2023-08-15T09:48:48.436Z,9872.00
2023-08-15T09:49:48.449Z,10728.00
2023-08-15T09:50:48.457Z,11132.00
2023-08-15T09:51:48.442Z,10308.00
2023-08-15T09:52:52.466Z,9864.00
2023-08-15T09:53:48.461Z,9864.00
2023-08-15T09:54:48.456Z,9964.00
2023-08-15T09:55:48.467Z,9840.00
2023-08-15T09:56:48.486Z,9696.00
2023-08-15T09:57:48.541Z,8840.00
2023-08-15T09:58:48.481Z,7920.00
2023-08-15T09:59:48.475Z,7328.00
2023-08-15T10:00:48.517Z,7480.00
2023-08-15T10:01:48.482Z,7628.00
2023-08-15T10:02:48.570Z,7804.00
2023-08-15T10:03:48.513Z,8596.00
2023-08-15T10:04:48.495Z,9844.00
2023-08-15T10:05:48.499Z,10476.00
2023-08-15T10:06:48.521Z,9800.00
2023-08-15T10:07:48.506Z,9612.00
2023-08-15T10:08:48.519Z,9136.00
2023-08-15T10:09:48.515Z,8168.00
2023-08-15T10:10:48.518Z,7920.00
2023-08-15T10:11:48.529Z,8544.00
2023-08-15T10:12:48.523Z,8640.00
2023-08-15T10:13:48.533Z,8272.00
2023-08-15T10:14:48.537Z,7788.00
2023-08-15T10:15:48.537Z,7948.00
2023-08-15T10:16:48.600Z,7632.00
2023-08-15T10:17:48.596Z,7152.00
2023-08-15T10:18:48.550Z,6436.00
2023-08-15T10:19:48.559Z,5808.00
2023-08-15T10:20:48.559Z,6408.00
2023-08-15T10:21:48.564Z,6960.00
2023-08-15T10:22:48.566Z,6644.00
2023-08-15T10:23:48.574Z,5504.00
2023-08-15T10:24:48.575Z,4632.00
2023-08-15T10:25:48.581Z,4140.00
2023-08-15T10:26:48.582Z,4208.00
2023-08-15T10:27:48.596Z,4708.00
2023-08-15T10:28:48.592Z,4964.00
2023-08-15T10:29:48.594Z,5152.00
2023-08-15T10:30:51.246Z,5588.00
2023-08-15T10:31:48.601Z,5364.00
2023-08-15T10:32:48.673Z,5644.00
2023-08-15T10:33:48.607Z,6568.00
2023-08-15T10:34:48.611Z,7648.00
2023-08-15T10:35:48.615Z,8144.00
2023-08-15T10:36:48.619Z,8440.00
2023-08-15T10:37:48.622Z,8124.00
2023-08-15T10:38:48.626Z,7696.00
2023-08-15T10:39:48.630Z,7204.00
2023-08-15T10:40:48.631Z,6036.00
2023-08-15T10:41:48.638Z,5576.00
2023-08-15T10:42:48.643Z,6096.00
2023-08-15T10:43:48.661Z,7136.00
2023-08-15T10:44:48.652Z,8020.00
2023-08-15T10:45:48.655Z,8216.00
2023-08-15T10:46:48.691Z,8152.00
2023-08-15T10:47:48.741Z,7588.00
2023-08-15T10:49:01.773Z,6480.00
2023-08-15T10:49:48.666Z,6492.00
2023-08-15T10:50:48.667Z,7636.00
2023-08-15T10:51:48.670Z,7948.00
2023-08-15T10:52:48.676Z,7984.00
2023-08-15T10:53:48.683Z,7100.00
2023-08-15T10:54:48.692Z,6752.00
2023-08-15T10:55:48.697Z,6224.00
2023-08-15T10:56:48.689Z,5392.00
2023-08-15T10:57:48.697Z,4528.00
2023-08-15T10:58:48.697Z,3904.00
2023-08-15T10:59:48.709Z,3664.00
2023-08-15T11:00:48.719Z,3520.00
2023-08-15T11:01:48.969Z,3556.00
2023-08-15T11:02:48.750Z,3592.00
2023-08-15T11:03:48.768Z,3696.00
2023-08-15T11:04:48.753Z,4060.00
2023-08-15T11:05:48.733Z,4764.00
2023-08-15T11:06:48.823Z,4328.00
2023-08-15T11:07:48.737Z,3784.00
2023-08-15T11:08:48.735Z,4320.00
2023-08-15T11:09:48.739Z,4476.00
2023-08-15T11:10:48.737Z,3732.00
2023-08-15T11:11:48.751Z,3472.00
2023-08-15T11:12:48.743Z,3396.00
2023-08-15T11:13:48.791Z,3340.00
2023-08-15T11:14:48.762Z,3660.00
2023-08-15T11:15:48.760Z,4352.00
2023-08-15T11:16:48.772Z,4660.00
2023-08-15T11:17:48.802Z,4500.00
2023-08-15T11:18:48.771Z,4292.00
2023-08-15T11:19:48.775Z,4676.00
2023-08-15T11:20:48.776Z,4700.00
2023-08-15T11:21:48.782Z,4164.00
2023-08-15T11:22:48.785Z,3680.00
2023-08-15T11:23:50.465Z,3448.00
2023-08-15T11:24:48.789Z,3336.00
2023-08-15T11:25:48.800Z,3300.00
2023-08-15T11:26:48.799Z,3220.00
2023-08-15T11:27:48.803Z,3148.00
2023-08-15T11:28:48.808Z,3112.00
2023-08-15T11:29:49.333Z,3084.00
2023-08-15T11:30:48.818Z,3072.00
2023-08-15T11:31:48.824Z,3056.00
2023-08-15T11:32:48.844Z,3036.00
2023-08-15T11:33:48.825Z,3004.00
2023-08-15T11:34:48.826Z,2992.00
2023-08-15T11:35:48.831Z,2984.00
2023-08-15T11:36:48.838Z,2988.00
2023-08-15T11:37:48.837Z,2968.00
2023-08-15T11:38:48.865Z,2964.00
2023-08-15T11:39:48.847Z,2964.00
2023-08-15T11:40:48.853Z,2972.00
2023-08-15T11:41:51.478Z,2988.00
2023-08-15T11:42:48.861Z,2984.00
2023-08-15T11:43:48.865Z,2972.00
2023-08-15T11:44:48.866Z,2960.00
2023-08-15T11:45:48.935Z,2948.00
2023-08-15T11:46:54.715Z,2924.00
2023-08-15T11:47:48.925Z,2908.00
2023-08-15T11:48:48.939Z,2928.00
2023-08-15T11:49:48.884Z,2940.00
2023-08-15T11:50:48.892Z,2940.00
2023-08-15T11:51:48.900Z,2932.00
2023-08-15T11:52:48.893Z,2916.00
2023-08-15T11:53:48.901Z,2892.00
2023-08-15T11:54:48.909Z,2888.00
2023-08-15T11:55:48.901Z,2864.00
2023-08-15T11:56:48.917Z,2848.00
2023-08-15T11:57:48.959Z,2836.00
2023-08-15T11:58:48.966Z,2816.00
2023-08-15T11:59:48.917Z,2812.00
2023-08-15T12:00:48.927Z,2788.00
2023-08-15T12:01:49.034Z,2760.00
2023-08-15T12:02:48.958Z,2744.00
2023-08-15T12:03:48.997Z,2728.00
2023-08-15T12:04:48.937Z,2708.00
2023-08-15T12:05:48.968Z,2704.00
2023-08-15T12:06:48.951Z,2692.00
2023-08-15T12:07:48.945Z,2680.00
2023-08-15T12:08:48.949Z,2672.00
2023-08-15T12:09:48.954Z,2680.00
2023-08-15T12:10:48.963Z,2668.00
2023-08-15T12:11:48.961Z,2680.00
2023-08-15T12:12:48.970Z,2664.00
2023-08-15T12:13:48.967Z,2668.00
2023-08-15T12:14:51.555Z,2656.00
2023-08-15T12:15:49.021Z,2660.00
2023-08-15T12:16:48.988Z,2656.00
2023-08-15T12:17:49.030Z,2652.00
2023-08-15T12:18:49.000Z,2648.00
2023-08-15T12:19:48.986Z,2656.00
2023-08-15T12:20:49.003Z,2652.00
2023-08-15T12:21:48.994Z,2640.00